createdAt,value
2022-08-04T00:00:18.665Z,101296.56
2022-08-04T00:03:07.216Z,101293.25
2022-08-04T00:05:47.121Z,101291.66
2022-08-04T00:08:49.863Z,101279.97
2022-08-04T00:11:28.836Z,101277.13
2022-08-04T00:14:04.736Z,101279.81
2022-08-04T00:16:38.489Z,101276.09
2022-08-04T00:19:42.086Z,101278.88
2022-08-04T00:22:11.554Z,101285.16
2022-08-04T00:24:39.502Z,101278.94
2022-08-04T00:27:08.624Z,101273.69
2022-08-04T00:29:39.341Z,101277.94
2022-08-04T00:32:08.166Z,101267.44
2022-08-04T00:34:36.217Z,101272.53
2022-08-04T00:37:06.406Z,101277.22
2022-08-04T00:39:33.862Z,101268.47
2022-08-04T00:42:14.202Z,101275.34
2022-08-04T00:44:58.386Z,101274.63
2022-08-04T00:48:02.838Z,101288.66
2022-08-04T00:50:35.742Z,101273.53
2022-08-04T00:53:13.626Z,101273.34
2022-08-04T00:55:49.213Z,101272.59
2022-08-04T00:58:42.820Z,101260.72
2022-08-04T01:01:31.370Z,101266.81
2022-08-04T01:04:16.097Z,101261.50
2022-08-04T01:07:15.108Z,101259.00
2022-08-04T01:09:58.851Z,101270.75
2022-08-04T01:12:43.522Z,101266.44
2022-08-04T01:15:29.045Z,101267.31
2022-08-04T01:18:01.853Z,101265.38
2022-08-04T01:20:35.275Z,101269.00
2022-08-04T01:23:16.501Z,101269.25
2022-08-04T01:26:15.279Z,101264.44
2022-08-04T01:29:12.972Z,101262.19
2022-08-04T01:31:53.708Z,101249.31
2022-08-04T01:34:23.049Z,101260.44
2022-08-04T01:37:00.690Z,101250.28
2022-08-04T01:39:42.237Z,101255.97
2022-08-04T01:42:11.166Z,101254.41
2022-08-04T01:44:41.750Z,101257.91
2022-08-04T01:47:09.903Z,101257.00
2022-08-04T01:49:40.691Z,101257.75
2022-08-04T01:52:10.398Z,101254.09
2022-08-04T01:54:42.451Z,101244.72
2022-08-04T01:57:38.879Z,101241.19
2022-08-04T01:59:59.898Z,101236.19
2022-08-04T02:02:27.359Z,101241.19
2022-08-04T02:04:54.313Z,101242.56
2022-08-04T02:07:27.043Z,101234.47
2022-08-04T02:10:07.674Z,101235.97
2022-08-04T02:12:34.463Z,101236.63
2022-08-04T02:15:33.692Z,101234.50
2022-08-04T02:18:09.321Z,101235.03
2022-08-04T02:20:44.312Z,101232.41
2022-08-04T02:23:15.977Z,101225.25
2022-08-04T02:25:47.915Z,101235.13
2022-08-04T02:28:33.256Z,101247.44
2022-08-04T02:31:14.229Z,101240.56
2022-08-04T02:33:43.883Z,101242.22
2022-08-04T02:36:29.658Z,101242.47
2022-08-04T02:39:00.104Z,101243.41
2022-08-04T02:41:28.933Z,101236.94
2022-08-04T02:43:59.139Z,101226.25
2022-08-04T02:46:26.436Z,101229.03
2022-08-04T02:48:54.544Z,101228.22
2022-08-04T02:51:34.847Z,101226.56
2022-08-04T02:54:05.031Z,101221.28
2022-08-04T02:56:38.769Z,101222.03
2022-08-04T02:59:09.530Z,101219.41
2022-08-04T03:01:37.323Z,101215.06
2022-08-04T03:04:10.360Z,101215.78
2022-08-04T03:07:14.397Z,101215.88
2022-08-04T03:09:45.615Z,101212.16
2022-08-04T03:12:49.898Z,101210.13
2022-08-04T03:15:42.836Z,101210.66
2022-08-04T03:18:24.829Z,101216.91
2022-08-04T03:21:03.933Z,101210.59
2022-08-04T03:24:01.531Z,101206.97
2022-08-04T03:27:02.232Z,101205.34
2022-08-04T03:29:46.141Z,101193.59
2022-08-04T03:32:42.597Z,101198.91
2022-08-04T03:35:54.329Z,101187.75
2022-08-04T03:38:36.330Z,101192.25
2022-08-04T03:41:09.179Z,101199.34
2022-08-04T03:44:18.005Z,101191.97
2022-08-04T03:46:55.935Z,101194.03
2022-08-04T03:49:57.561Z,101186.75
2022-08-04T03:53:10.941Z,101186.94
2022-08-04T03:56:02.994Z,101189.72
2022-08-04T03:58:51.390Z,101184.38
2022-08-04T04:01:57.837Z,101180.91
2022-08-04T04:04:58.388Z,101178.97
2022-08-04T04:07:35.807Z,101177.94
2022-08-04T04:10:25.918Z,101166.75
2022-08-04T04:13:20.082Z,101167.59
2022-08-04T04:16:06.605Z,101178.78
2022-08-04T04:18:51.425Z,101170.97
2022-08-04T04:21:29.345Z,101173.81
2022-08-04T04:24:14.607Z,101174.72
2022-08-04T04:26:56.668Z,101176.69
2022-08-04T04:29:49.758Z,101171.59
2022-08-04T04:32:32.190Z,101169.84
2022-08-04T04:35:24.140Z,101175.91
2022-08-04T04:38:35.413Z,101163.78
2022-08-04T04:41:35.787Z,101171.91
2022-08-04T04:44:36.485Z,101173.63
2022-08-04T04:48:07.703Z,101169.28
2022-08-04T04:50:15.979Z,101171.25
2022-08-04T04:53:11.696Z,101167.72
2022-08-04T04:55:48.223Z,101178.34
2022-08-04T04:58:18.926Z,101178.34
2022-08-04T05:00:45.710Z,101181.31
2022-08-04T05:03:33.653Z,101178.81
2022-08-04T05:06:07.857Z,101186.09
2022-08-04T05:09:16.901Z,101176.63
2022-08-04T05:12:02.415Z,101179.63
2022-08-04T05:14:41.425Z,101183.34
2022-08-04T05:17:26.313Z,101181.13
2022-08-04T05:20:16.970Z,101176.94
2022-08-04T05:22:52.727Z,101179.63
2022-08-04T05:25:24.978Z,101178.78
2022-08-04T05:28:02.548Z,101174.41
2022-08-04T05:30:34.479Z,101177.22
2022-08-04T05:33:11.277Z,101185.13
2022-08-04T05:36:16.847Z,101180.91
2022-08-04T05:38:37.713Z,101177.66
2022-08-04T05:41:05.790Z,101175.25
2022-08-04T05:43:34.717Z,101174.34
2022-08-04T05:46:02.733Z,101182.44
2022-08-04T05:48:32.762Z,101179.88
2022-08-04T05:51:02.073Z,101187.63
2022-08-04T05:53:30.450Z,101184.66
2022-08-04T05:55:59.944Z,101182.41
2022-08-04T05:58:30.973Z,101178.22
2022-08-04T06:01:02.202Z,101179.06
2022-08-04T06:03:34.971Z,101180.84
2022-08-04T06:06:03.489Z,101173.94
2022-08-04T06:08:31.510Z,101173.09
2022-08-04T06:11:03.862Z,101171.16
2022-08-04T06:13:49.609Z,101174.00
2022-08-04T06:16:29.029Z,101175.97
2022-08-04T06:20:03.109Z,101165.88
2022-08-04T06:21:51.053Z,101175.00
2022-08-04T06:24:20.578Z,101173.41
2022-08-04T06:26:50.205Z,101182.25
2022-08-04T06:29:30.712Z,101188.34
2022-08-04T06:32:28.797Z,101198.03
2022-08-04T06:34:50.354Z,101190.06
2022-08-04T06:37:41.044Z,101184.50
2022-08-04T06:40:30.063Z,101184.69
2022-08-04T06:42:56.431Z,101174.91
2022-08-04T06:45:24.780Z,101180.31
2022-08-04T06:47:53.065Z,101175.94
2022-08-04T06:51:31.257Z,101187.38
2022-08-04T06:53:07.384Z,101177.78
2022-08-04T06:55:34.817Z,101182.00
2022-08-04T06:58:03.557Z,101167.16
2022-08-04T07:00:33.686Z,101167.22
2022-08-04T07:03:01.108Z,101170.84
2022-08-04T07:05:29.001Z,101165.56
2022-08-04T07:07:58.416Z,101168.22
2022-08-04T07:10:28.102Z,101172.72
2022-08-04T07:13:00.181Z,101170.13
2022-08-04T07:15:28.310Z,101163.06
2022-08-04T07:18:00.195Z,101171.81
2022-08-04T07:20:35.066Z,101165.75
2022-08-04T07:23:05.730Z,101168.41
2022-08-04T07:25:59.599Z,101164.78
2022-08-04T07:28:24.211Z,101161.38
2022-08-04T07:30:52.675Z,101158.75
2022-08-04T07:33:19.868Z,101162.25
2022-08-04T07:36:09.440Z,101155.19
2022-08-04T07:38:48.122Z,101154.31
2022-08-04T07:41:37.426Z,101159.59
2022-08-04T07:44:05.242Z,101148.06
2022-08-04T07:46:32.319Z,101145.41
2022-08-04T07:49:03.726Z,101146.25
2022-08-04T07:51:31.534Z,101145.34
2022-08-04T07:54:00.361Z,101146.94
2022-08-04T07:56:28.463Z,101146.94
2022-08-04T07:58:56.377Z,101145.25
2022-08-04T08:01:25.159Z,101143.38
2022-08-04T08:03:55.860Z,101143.28
2022-08-04T08:06:32.455Z,101146.16
2022-08-04T08:09:12.342Z,101146.94
2022-08-04T08:12:38.285Z,101151.16
2022-08-04T08:14:30.741Z,101154.81
2022-08-04T08:17:00.330Z,101146.94
2022-08-04T08:19:27.145Z,101154.84
2022-08-04T08:21:59.457Z,101150.16
2022-08-04T08:24:31.600Z,101139.31
2022-08-04T08:27:00.455Z,101144.47
2022-08-04T08:29:29.826Z,101150.94
2022-08-04T08:32:01.398Z,101149.03
2022-08-04T08:34:32.519Z,101145.34
2022-08-04T08:37:10.442Z,101138.75
2022-08-04T08:39:48.681Z,101151.03
2022-08-04T08:42:30.972Z,101143.97
2022-08-04T08:45:00.805Z,101150.16
2022-08-04T08:48:04.831Z,101142.78
2022-08-04T08:50:59.279Z,101139.06
2022-08-04T08:53:28.772Z,101137.63
2022-08-04T08:56:10.834Z,101147.28
2022-08-04T08:58:40.628Z,101147.34
2022-08-04T09:01:24.581Z,101160.53
2022-08-04T09:04:32.192Z,101158.00
2022-08-04T09:07:21.774Z,101158.19
2022-08-04T09:10:27.846Z,101166.00
2022-08-04T09:13:03.019Z,101158.00
2022-08-04T09:15:41.939Z,101157.97
2022-08-04T09:18:24.020Z,101159.59
2022-08-04T09:21:10.173Z,101160.34
2022-08-04T09:24:35.175Z,101166.44
2022-08-04T09:27:09.951Z,101166.25
2022-08-04T09:29:43.530Z,101163.88
2022-08-04T09:32:38.142Z,101168.31
2022-08-04T09:36:01.551Z,101161.22
2022-08-04T09:39:03.951Z,101162.78
2022-08-04T09:41:49.233Z,101177.59
2022-08-04T09:44:50.012Z,101171.34
2022-08-04T09:47:23.895Z,101175.22
2022-08-04T09:49:59.207Z,101182.78
2022-08-04T09:52:49.545Z,101171.78
2022-08-04T09:55:24.368Z,101181.91
2022-08-04T09:58:22.854Z,101172.38
2022-08-04T10:01:08.265Z,101175.66
2022-08-04T10:03:39.130Z,101165.19
2022-08-04T10:06:27.793Z,101181.06
2022-08-04T10:09:12.234Z,101172.03
2022-08-04T10:11:56.546Z,101173.66
2022-08-04T10:14:32.973Z,101168.09
2022-08-04T10:17:52.067Z,101164.75
2022-08-04T10:20:55.324Z,101176.94
2022-08-04T10:24:00.412Z,101173.03
2022-08-04T10:26:30.498Z,101165.03
2022-08-04T10:29:22.631Z,101167.16
2022-08-04T10:31:59.175Z,101165.66
2022-08-04T10:34:39.629Z,101167.97
2022-08-04T10:37:59.430Z,101171.84
2022-08-04T10:40:43.116Z,101174.13
2022-08-04T10:43:29.860Z,101159.63
2022-08-04T10:46:03.583Z,101166.03
2022-08-04T10:48:57.106Z,101166.75
2022-08-04T10:51:58.251Z,101166.72
2022-08-04T10:54:51.654Z,101175.09
2022-08-04T10:57:26.172Z,101178.59
2022-08-04T11:00:08.051Z,101179.00
2022-08-04T11:02:41.766Z,101173.16
2022-08-04T11:05:44.218Z,101173.69
2022-08-04T11:08:40.219Z,101185.09
2022-08-04T11:11:15.118Z,101187.72
2022-08-04T11:13:52.156Z,101190.88
2022-08-04T11:16:27.706Z,101194.09
2022-08-04T11:19:18.803Z,101199.09
2022-08-04T11:22:07.730Z,101203.13
2022-08-04T11:24:52.719Z,101203.72
2022-08-04T11:27:52.781Z,101206.38
2022-08-04T11:30:20.396Z,101213.56
2022-08-04T11:33:07.546Z,101216.16
2022-08-04T11:35:42.486Z,101220.56
2022-08-04T11:38:54.374Z,101231.00
2022-08-04T11:41:37.865Z,101234.22
2022-08-04T11:44:11.963Z,101234.41
2022-08-04T11:46:47.565Z,101229.16
2022-08-04T11:49:32.306Z,101232.38
2022-08-04T11:52:21.818Z,101233.13
2022-08-04T11:54:52.425Z,101228.97
2022-08-04T11:57:25.625Z,101227.28
2022-08-04T12:00:07.594Z,101231.72
2022-08-04T12:03:06.511Z,101231.91
2022-08-04T12:05:37.781Z,101239.94
2022-08-04T12:08:08.155Z,101248.09
2022-08-04T12:11:06.190Z,101262.38
2022-08-04T12:14:02.030Z,101258.66
2022-08-04T12:16:47.096Z,101269.75
2022-08-04T12:19:32.462Z,101265.56
2022-08-04T12:22:21.304Z,101279.66
2022-08-04T12:25:04.106Z,101286.94
2022-08-04T12:27:44.467Z,101288.09
2022-08-04T12:30:58.601Z,101292.44
2022-08-04T12:33:24.409Z,101288.97
2022-08-04T12:36:33.496Z,101305.59
2022-08-04T12:39:09.211Z,101302.78
2022-08-04T12:41:42.341Z,101307.13
2022-08-04T12:44:33.437Z,101296.94
2022-08-04T12:47:27.690Z,101294.06
2022-08-04T12:50:00.716Z,101293.56
2022-08-04T12:55:19.144Z,101307.91
2022-08-04T12:57:47.739Z,101300.81
2022-08-04T13:00:29.397Z,101309.72
2022-08-04T13:03:03.530Z,101310.59
2022-08-04T13:05:31.911Z,101311.44
2022-08-04T13:08:01.221Z,101327.38
2022-08-04T13:10:30.106Z,101334.25
2022-08-04T13:13:00.242Z,101343.91
2022-08-04T13:15:28.462Z,101342.97
2022-08-04T13:18:03.017Z,101339.59
2022-08-04T13:20:33.671Z,101346.63
2022-08-04T13:23:08.850Z,101342.97
2022-08-04T13:26:43.616Z,101350.19
2022-08-04T13:28:29.365Z,101366.22
2022-08-04T13:31:00.386Z,101362.69
2022-08-04T13:33:36.413Z,101363.50
2022-08-04T13:36:05.371Z,101365.16
2022-08-04T13:38:33.918Z,101358.13
2022-08-04T13:41:05.177Z,101358.41
2022-08-04T13:44:17.660Z,101355.34
2022-08-04T13:46:50.788Z,101344.88
2022-08-04T13:49:54.228Z,101350.31
2022-08-04T13:52:10.711Z,101337.38
2022-08-04T13:54:45.910Z,101343.97
2022-08-04T13:57:23.931Z,101344.50
2022-08-04T13:59:53.772Z,101338.63
2022-08-04T14:02:34.385Z,101342.25
2022-08-04T14:05:18.444Z,101340.47
2022-08-04T14:07:50.912Z,101346.06
2022-08-04T14:10:17.991Z,101342.56
2022-08-04T14:12:47.658Z,101350.94
2022-08-04T14:16:01.408Z,101341.53
2022-08-04T14:18:32.579Z,101348.09
2022-08-04T14:21:14.469Z,101353.09
2022-08-04T14:23:51.091Z,101344.41
2022-08-04T14:26:31.357Z,101347.44
2022-08-04T14:29:27.149Z,101343.69
2022-08-04T14:32:04.446Z,101351.91
2022-08-04T14:34:41.526Z,101348.63
2022-08-04T14:37:16.782Z,101351.25
2022-08-04T14:40:08.963Z,101346.44
2022-08-04T14:42:44.508Z,101341.28
2022-08-04T14:45:54.086Z,101342.97
2022-08-04T14:48:22.913Z,101350.44
2022-08-04T14:50:51.072Z,101348.84
2022-08-04T14:53:19.087Z,101345.13
2022-08-04T14:55:48.892Z,101352.16
2022-08-04T14:58:34.925Z,101359.53
2022-08-04T15:01:11.015Z,101351.56
2022-08-04T15:03:49.932Z,101348.91
2022-08-04T15:06:22.725Z,101353.94
2022-08-04T15:08:52.346Z,101349.47
2022-08-04T15:11:23.260Z,101360.19
2022-08-04T15:13:52.447Z,101352.84
2022-08-04T15:16:20.161Z,101358.66
2022-08-04T15:18:49.161Z,101355.63
2022-08-04T15:21:17.355Z,101361.22
2022-08-04T15:23:44.347Z,101350.69
2022-08-04T15:26:19.635Z,101354.72
2022-08-04T15:28:51.709Z,101351.69
2022-08-04T15:32:07.329Z,101351.50
2022-08-04T15:34:09.764Z,101351.13
2022-08-04T15:36:43.422Z,101354.41
2022-08-04T15:39:16.615Z,101357.25
2022-08-04T15:42:15.000Z,101354.69
2022-08-04T15:45:12.676Z,101355.47
2022-08-04T15:47:41.142Z,101352.56
2022-08-04T15:50:13.695Z,101351.03
2022-08-04T15:53:10.857Z,101362.38
2022-08-04T15:55:44.063Z,101358.63
2022-08-04T15:58:16.093Z,101350.91
2022-08-04T16:00:54.045Z,101352.78
2022-08-04T16:03:58.276Z,101352.97
2022-08-04T16:06:23.047Z,101365.44
2022-08-04T16:08:58.309Z,101363.63
2022-08-04T16:11:31.425Z,101373.34
2022-08-04T16:13:59.048Z,101367.00
2022-08-04T16:16:30.377Z,101379.34
2022-08-04T16:19:25.984Z,101379.91
2022-08-04T16:22:04.257Z,101379.28
2022-08-04T16:24:39.545Z,101382.78
2022-08-04T16:27:08.359Z,101395.06
2022-08-04T16:29:45.682Z,101396.66
2022-08-04T16:32:21.421Z,101399.16
2022-08-04T16:34:59.732Z,101395.38
2022-08-04T16:37:34.398Z,101402.00
2022-08-04T16:40:35.918Z,101398.63
2022-08-04T16:43:29.530Z,101408.31
2022-08-04T16:45:58.947Z,101402.69
2022-08-04T16:48:34.587Z,101404.63
2022-08-04T16:51:09.696Z,101412.66
2022-08-04T16:53:52.460Z,101415.88
2022-08-04T16:56:33.661Z,101414.28
2022-08-04T16:59:12.452Z,101412.44
2022-08-04T17:01:51.635Z,101411.25
2022-08-04T17:04:27.929Z,101419.09
2022-08-04T17:07:00.240Z,101421.22
2022-08-04T17:09:28.868Z,101422.50
2022-08-04T17:11:57.007Z,101423.84
2022-08-04T17:14:25.886Z,101427.03
2022-08-04T17:16:54.905Z,101436.13
2022-08-04T17:19:26.093Z,101428.03
2022-08-04T17:22:04.376Z,101443.53
2022-08-04T17:24:38.314Z,101445.00
2022-08-04T17:28:19.822Z,101440.38
2022-08-04T17:29:54.409Z,101451.06
2022-08-04T17:32:22.759Z,101448.44
2022-08-04T17:34:54.418Z,101442.59
2022-08-04T17:37:39.867Z,101444.66
2022-08-04T17:44:03.362Z,101439.59
2022-08-04T17:46:28.095Z,101449.22
2022-08-04T17:49:19.773Z,101446.44
2022-08-04T17:52:05.899Z,101449.41
2022-08-04T17:54:38.836Z,101444.59
2022-08-04T18:00:05.680Z,101447.09
2022-08-04T18:02:36.179Z,101445.34
2022-08-04T18:05:05.638Z,101447.16
2022-08-04T18:08:40.856Z,101459.84
2022-08-04T18:10:52.548Z,101455.06
2022-08-04T18:13:25.081Z,101459.31
2022-08-04T18:16:05.097Z,101456.56
2022-08-04T18:18:32.206Z,101463.53
2022-08-04T18:21:02.867Z,101450.00
2022-08-04T18:23:32.790Z,101458.88
2022-08-04T18:26:02.474Z,101462.91
2022-08-04T18:28:30.763Z,101468.19
2022-08-04T18:30:59.843Z,101463.81
2022-08-04T18:33:40.677Z,101468.19
2022-08-04T18:36:36.937Z,101466.31
2022-08-04T18:38:59.082Z,101465.31
2022-08-04T18:41:27.837Z,101470.59
2022-08-04T18:46:52.470Z,101476.72
2022-08-04T18:50:59.988Z,101474.41
2022-08-04T18:52:12.935Z,101479.06
2022-08-04T18:54:42.261Z,101476.91
2022-08-04T18:57:24.465Z,101478.41
2022-08-04T18:59:56.513Z,101483.53
2022-08-04T19:02:26.434Z,101478.16
2022-08-04T19:04:53.464Z,101485.22
2022-08-04T19:07:33.724Z,101498.44
2022-08-04T19:10:07.564Z,101505.25
2022-08-04T19:12:53.622Z,101507.09
2022-08-04T19:15:20.445Z,101505.38
2022-08-04T19:18:01.440Z,101505.78
2022-08-04T19:20:29.780Z,101513.41
2022-08-04T19:24:26.239Z,101513.41
2022-08-04T19:26:02.514Z,101508.88
2022-08-04T19:28:35.153Z,101512.31
2022-08-04T19:31:07.447Z,101519.97
2022-08-04T19:33:58.302Z,101519.84
2022-08-04T19:36:27.733Z,101516.59
2022-08-04T19:42:04.807Z,101506.41
2022-08-04T19:44:31.373Z,101509.75
2022-08-04T19:47:00.784Z,101519.78
2022-08-04T19:52:33.880Z,101525.38
2022-08-04T19:55:09.827Z,101524.19
2022-08-04T19:57:46.470Z,101528.19
2022-08-04T20:00:33.146Z,101531.06
2022-08-04T20:03:03.003Z,101524.06
2022-08-04T20:05:54.835Z,101523.09
2022-08-04T20:08:17.585Z,101519.78
2022-08-04T20:10:51.557Z,101524.13
2022-08-04T20:13:19.838Z,101519.44
2022-08-04T20:15:57.531Z,101516.69
2022-08-04T20:18:36.550Z,101518.84
2022-08-04T20:21:22.657Z,101528.13
2022-08-04T20:24:39.236Z,101528.50
2022-08-04T20:26:48.763Z,101535.00
2022-08-04T20:29:20.680Z,101538.50
2022-08-04T20:32:05.633Z,101542.59
2022-08-04T20:34:37.015Z,101537.56
2022-08-04T20:37:03.923Z,101546.06
2022-08-04T20:39:31.136Z,101532.97
2022-08-04T20:41:58.740Z,101549.13
2022-08-04T20:44:25.848Z,101549.78
2022-08-04T20:46:53.234Z,101544.63
2022-08-04T20:49:20.030Z,101549.66
2022-08-04T20:51:48.725Z,101549.56
2022-08-04T20:54:26.482Z,101553.78
2022-08-04T20:56:53.572Z,101541.56
2022-08-04T20:59:21.035Z,101549.19
2022-08-04T21:01:49.506Z,101554.00
2022-08-04T21:04:34.565Z,101557.88
2022-08-04T21:07:09.812Z,101554.53
2022-08-04T21:09:49.847Z,101556.13
2022-08-04T21:12:27.323Z,101555.28
2022-08-04T21:15:01.477Z,101550.13
2022-08-04T21:17:59.629Z,101550.06
2022-08-04T21:20:32.310Z,101551.09
2022-08-04T21:23:01.695Z,101563.22
2022-08-04T21:25:29.707Z,101570.78
2022-08-04T21:27:59.016Z,101564.84
2022-08-04T21:30:30.940Z,101564.06
2022-08-04T21:32:59.750Z,101574.56
2022-08-04T21:35:37.110Z,101578.72
2022-08-04T21:38:16.340Z,101574.75
2022-08-04T21:40:53.267Z,101567.69
2022-08-04T21:43:23.601Z,101569.25
2022-08-04T21:45:55.082Z,101566.03
2022-08-04T21:48:27.600Z,101566.16
2022-08-04T21:50:55.505Z,101570.16
2022-08-04T21:53:24.440Z,101563.22
2022-08-04T21:56:05.782Z,101560.97
2022-08-04T21:58:37.672Z,101557.28
2022-08-04T22:01:12.811Z,101555.41
2022-08-04T22:03:52.350Z,101569.63
2022-08-04T22:06:22.842Z,101571.34
2022-08-04T22:08:56.476Z,101579.22
2022-08-04T22:11:49.066Z,101587.78
2022-08-04T22:14:17.265Z,101581.19
2022-08-04T22:16:56.367Z,101583.56
2022-08-04T22:19:39.646Z,101567.44
2022-08-04T22:22:13.617Z,101565.78
2022-08-04T22:24:53.722Z,101568.56
2022-08-04T22:27:39.064Z,101561.88
2022-08-04T22:30:13.362Z,101561.16
2022-08-04T22:32:48.529Z,101562.22
2022-08-04T22:35:30.897Z,101573.50
2022-08-04T22:38:25.529Z,101580.97
2022-08-04T22:41:00.265Z,101589.84
2022-08-04T22:43:32.826Z,101605.94
2022-08-04T22:46:03.674Z,101577.03
2022-08-04T22:48:32.461Z,101576.34
2022-08-04T22:51:00.720Z,101576.16
2022-08-04T22:53:28.213Z,101585.75
2022-08-04T22:56:06.905Z,101585.94
2022-08-04T22:58:36.216Z,101591.06
2022-08-04T23:01:08.800Z,101600.09
2022-08-04T23:03:38.296Z,101609.00
2022-08-04T23:06:11.072Z,101615.81
2022-08-04T23:08:43.090Z,101597.91
2022-08-04T23:11:13.697Z,101593.50
2022-08-04T23:13:42.106Z,101593.56
2022-08-04T23:16:09.923Z,101583.47
2022-08-04T23:18:40.214Z,101582.88
2022-08-04T23:21:10.438Z,101584.75
2022-08-04T23:23:47.694Z,101586.56
2022-08-04T23:26:27.299Z,101584.88
2022-08-04T23:28:56.383Z,101584.66
2022-08-04T23:31:24.685Z,101580.19
2022-08-04T23:33:52.393Z,101568.41
2022-08-04T23:36:29.705Z,101567.00
2022-08-04T23:39:03.709Z,101562.41
2022-08-04T23:41:54.701Z,101564.44
2022-08-04T23:44:25.029Z,101565.47
2022-08-04T23:47:04.466Z,101570.53
2022-08-04T23:49:43.865Z,101573.69
2022-08-04T23:52:28.295Z,101579.09
2022-08-04T23:55:00.806Z,101597.66
2022-08-04T23:58:02.375Z,101572.81
